createdAt,value
2018-11-14T00:01:14.731Z,77.07
2018-11-14T00:11:33.358Z,77.54
2018-11-14T00:21:52.142Z,78.25
2018-11-14T00:32:10.836Z,78.81
2018-11-14T00:42:29.653Z,79.15
2018-11-14T00:52:48.258Z,79.20
2018-11-14T01:03:06.925Z,81.08
2018-11-14T01:13:26.097Z,82.83
2018-11-14T01:23:44.712Z,84.00
2018-11-14T01:34:03.489Z,84.90
2018-11-14T01:44:21.999Z,86.24
2018-11-14T01:54:40.889Z,85.79
2018-11-14T02:04:59.658Z,86.82
2018-11-14T02:15:22.282Z,88.01
2018-11-14T02:25:40.721Z,87.61
2018-11-14T02:35:59.556Z,87.68
2018-11-14T02:46:18.116Z,89.06
2018-11-14T02:56:37.413Z,90.79
2018-11-14T03:06:56.096Z,91.91
2018-11-14T03:17:15.833Z,92.58
2018-11-14T03:27:34.835Z,93.18
2018-11-14T03:37:53.879Z,93.88
2018-11-14T03:48:12.644Z,93.57
2018-11-14T03:58:31.956Z,94.21
2018-11-14T04:08:50.982Z,94.48
2018-11-14T04:19:09.516Z,94.56
2018-11-14T04:29:28.474Z,94.37
2018-11-14T04:39:47.166Z,94.92
2018-11-14T04:50:08.191Z,95.12
2018-11-14T05:00:26.857Z,95.25
2018-11-14T05:10:45.404Z,94.45
2018-11-14T05:21:04.552Z,93.91
2018-11-14T05:31:23.409Z,94.55
2018-11-14T05:41:42.524Z,95.08
2018-11-14T05:52:01.250Z,95.73
2018-11-14T06:02:20.243Z,95.99
2018-11-14T06:12:40.329Z,96.35
2018-11-14T06:22:59.087Z,96.55
2018-11-14T06:33:00.161Z,96.57
2018-11-14T06:43:00.352Z,96.53
2018-11-14T06:53:02.010Z,96.58
2018-11-14T07:03:06.335Z,96.29
2018-11-14T07:13:12.761Z,95.79
2018-11-14T07:23:12.962Z,95.61
2018-11-14T07:33:13.007Z,94.98
2018-11-14T07:43:13.143Z,94.80
2018-11-14T07:53:32.600Z,93.97
2018-11-14T08:03:52.326Z,93.77
2018-11-14T08:14:10.989Z,93.38
2018-11-14T08:24:30.013Z,92.44
2018-11-14T08:34:49.157Z,82.70
2018-11-14T08:45:09.485Z,70.85
2018-11-14T08:55:28.204Z,65.22
2018-11-14T09:05:47.049Z,60.68
2018-11-14T09:16:05.731Z,58.31
2018-11-14T09:26:24.533Z,58.90
2018-11-14T09:36:43.168Z,57.35
2018-11-14T09:47:01.865Z,57.87
2018-11-14T09:57:20.605Z,51.63
2018-11-14T10:07:39.439Z,48.33
2018-11-14T10:17:58.159Z,51.33
2018-11-14T10:28:17.151Z,52.24
2018-11-14T10:38:36.216Z,49.91
2018-11-14T10:48:54.916Z,50.97
2018-11-14T10:59:13.549Z,52.67
2018-11-14T11:09:50.714Z,52.59
2018-11-14T11:20:09.744Z,48.22
2018-11-14T11:30:28.241Z,45.20
2018-11-14T11:40:47.651Z,43.46
2018-11-14T11:51:06.343Z,48.72
2018-11-14T12:01:24.964Z,47.50
2018-11-14T12:11:43.784Z,53.85
2018-11-14T12:22:02.767Z,58.49
2018-11-14T12:32:21.707Z,58.72
2018-11-14T12:42:40.366Z,53.26
2018-11-14T12:52:59.629Z,51.90
2018-11-14T13:03:18.610Z,46.04
2018-11-14T13:13:47.482Z,41.27
2018-11-14T13:24:05.928Z,39.93
2018-11-14T13:34:25.269Z,43.50
2018-11-14T13:44:44.767Z,43.96
2018-11-14T13:55:09.257Z,45.95
2018-11-14T14:05:30.499Z,51.87
2018-11-14T14:15:50.759Z,58.40
2018-11-14T14:26:12.442Z,61.09
2018-11-14T14:36:31.478Z,59.71
2018-11-14T14:46:50.127Z,63.12
2018-11-14T14:57:08.888Z,72.88
2018-11-14T15:07:27.490Z,76.38
2018-11-14T15:17:46.177Z,76.79
2018-11-14T15:28:05.225Z,78.54
2018-11-14T15:38:24.289Z,79.24
2018-11-14T15:48:43.150Z,80.97
2018-11-14T15:59:01.951Z,82.69
2018-11-14T16:09:20.612Z,84.99
2018-11-14T16:19:39.476Z,86.46
2018-11-14T16:29:58.356Z,86.91
2018-11-14T16:40:21.315Z,87.45
2018-11-14T16:50:40.441Z,88.55
2018-11-14T17:00:59.195Z,89.57
2018-11-14T17:11:17.952Z,89.79
2018-11-14T17:21:36.803Z,90.51
2018-11-14T17:31:55.369Z,91.05
2018-11-14T17:42:13.999Z,91.24
2018-11-14T17:52:32.525Z,91.79
2018-11-14T18:02:51.214Z,92.20
2018-11-14T18:13:09.819Z,92.44
2018-11-14T18:23:28.414Z,92.92
2018-11-14T18:33:47.233Z,93.04
2018-11-14T18:44:05.990Z,93.31
2018-11-14T18:54:25.273Z,93.50
2018-11-14T19:04:44.346Z,93.88
2018-11-14T19:15:03.882Z,94.16
2018-11-14T19:25:30.195Z,94.02
2018-11-14T19:35:49.442Z,94.63
2018-11-14T19:46:08.713Z,95.12
2018-11-14T19:56:27.656Z,95.15
2018-11-14T20:06:47.004Z,95.34
2018-11-14T20:17:06.125Z,95.29
2018-11-14T20:27:25.374Z,95.33
2018-11-14T20:37:44.828Z,95.72
2018-11-14T20:48:03.987Z,95.71
2018-11-14T20:58:23.138Z,96.12
2018-11-14T21:08:42.467Z,96.01
2018-11-14T21:19:01.755Z,96.28
2018-11-14T21:29:21.422Z,96.14
2018-11-14T21:39:40.758Z,95.91
2018-11-14T21:50:00.096Z,96.42
2018-11-14T22:00:31.206Z,96.49
2018-11-14T22:10:50.183Z,96.56
2018-11-14T22:21:09.340Z,96.74
2018-11-14T22:31:28.704Z,96.68
2018-11-14T22:41:47.727Z,96.72
2018-11-14T22:52:07.321Z,96.72
2018-11-14T23:02:26.380Z,96.94
2018-11-14T23:12:45.845Z,96.97
2018-11-14T23:23:05.615Z,96.91
2018-11-14T23:33:27.155Z,97.09
2018-11-14T23:43:47.621Z,97.22
2018-11-14T23:54:07.239Z,97.09
